Terminal Aerodrome Forecast
Issued by NWS Wakefield, VA

Current Version | Previous Version | Text Only | Print | Product List | Glossary On
Versions: 1 2 3 4 5 6 7 8 9 10 11 12 13 14 15 16 17 18 19 20 21 22 23 24
730
FTUS41 KAKQ 041738
TAFORF
TAF
KORF 041738Z 0418/0518 05006KT P6SM OVC005
     FM042000 05006KT P6SM OVC008
     FM050400 05007KT 4SM BR OVC003
     FM051500 04010KT P6SM OVC008=

USA.gov is the U.S. government's official web portal to all federal, state and local government web resources and services.